West Fork, AR

8:04 PM CDT on May 26, 2017 (GMT -0500)
West Fork/Bloyd Mountain | | Change Station

Elev 1600 ft 35.93 °N, 94.17 °W | Updated 9 seconds ago

Mostly Cloudy
Mostly Cloudy
78.8 °F
Feels Like 82 °F
N
0.7
Wind Variable Wind from SE
Gusts 3.1 mph

Today
High -- | Low -- °F
--% Chance of Precip.
Yesterday
High -- | Low -- °F
Precip. -- in
Pressure 29.76 in
Visibility 10.0 miles
Clouds Mostly Cloudy 3800 ft
Heat Index 82 °F
Dew Point 73 °F
Humidity 83%
Rainfall 0.00 in
Snow Depth Not available.
6:03 AM 8:24 PM
New Moon, 2% visible
METAR KFYV 270053Z 15005KT 10SM BKN038 27/22 A2980 RMK AO2 SLP077 T02670222
Pressure 29.76 in
Visibility 10.0 miles
Clouds Mostly Cloudy 3800 ft
Heat Index 82 °F
Dew Point 73 °F
Humidity 83%
Rainfall 0.00 in
Snow Depth Not available.
6:03 AM 8:24 PM
New Moon, 2% visible
METAR KFYV 270053Z 15005KT 10SM BKN038 27/22 A2980 RMK AO2 SLP077 T02670222

Get Severe Weather Alerts

Thanks for signing up!

Be on the lookout for a verification email in your inbox.

You'll start receiving the daily forecast at 6 AM.

×

10-Day Weather Forecast

Almanac

Astronomy

May. 26, 2017 Rise Set
Actual Time
Civil Twilight
Nautical Twilight
Astronomical Twilight
Moon
Length of Visible Light
Length of Day
Tomorrow will be .
, % of the Moon is Illuminated

Today's Extremes

State Highs State Lows

Community

WunderPhotos

Category 6

Welcome to Category 6. This is the collective home for Weather Underground's featured writeups by Dr. Jeff Masters (right), Bob Henson (left), Chris Burt, and other regular contributors.

Nearby

Air Quality

  Air Quality AQ Index Pollutant
Not available.

Snow Depth

Station Depth Elevation

Earthquake Activity

City Distance Mag. Time & Date
Minimum magnitude displayed is 2.5.

Coastal Water Temperatures

Place Temperature

Stations

Nearby Weather Stations

Station Location Temp. Windchill Dew Point Humidity Wind Precip. Elev Updated Type
                   

Watches & Warnings

There are currently no watches in effect.